createdAt,value
2023-12-30T00:01:32.543Z,98.82
2023-12-30T00:03:59.292Z,98.76
2023-12-30T00:06:25.940Z,98.96
2023-12-30T00:08:52.410Z,98.76
2023-12-30T00:11:19.394Z,99.00
2023-12-30T00:13:45.925Z,99.08
2023-12-30T00:16:15.417Z,98.86
2023-12-30T00:18:41.971Z,98.74
2023-12-30T00:21:08.580Z,98.52
2023-12-30T00:23:41.055Z,98.55
2023-12-30T00:26:21.863Z,98.19
2023-12-30T00:28:49.441Z,98.42
2023-12-30T00:31:29.405Z,98.55
2023-12-30T00:34:09.206Z,97.69
2023-12-30T00:36:35.741Z,97.78
2023-12-30T00:39:02.288Z,97.86
2023-12-30T00:41:30.920Z,97.31
2023-12-30T00:44:06.740Z,97.63
2023-12-30T00:46:33.337Z,97.38
2023-12-30T00:49:00.125Z,97.23
2023-12-30T00:51:26.686Z,97.76
2023-12-30T00:53:53.288Z,97.49
2023-12-30T00:56:20.144Z,97.35
2023-12-30T00:58:46.884Z,97.17
2023-12-30T01:01:28.875Z,97.20
2023-12-30T01:03:55.487Z,96.96
2023-12-30T01:06:29.799Z,96.98
2023-12-30T01:08:56.705Z,96.72
2023-12-30T01:11:23.160Z,96.72
2023-12-30T01:13:49.735Z,96.32
2023-12-30T01:16:31.632Z,96.42
2023-12-30T01:19:09.834Z,96.65
2023-12-30T01:21:42.196Z,96.46
2023-12-30T01:24:08.794Z,96.22
2023-12-30T01:26:38.615Z,96.27
2023-12-30T01:29:11.319Z,95.80
2023-12-30T01:31:37.892Z,95.64
2023-12-30T01:34:04.620Z,95.78
2023-12-30T01:36:31.539Z,95.61
2023-12-30T01:38:58.040Z,95.60
2023-12-30T01:41:27.248Z,95.35
2023-12-30T01:43:56.589Z,94.82
2023-12-30T01:46:23.244Z,94.59
2023-12-30T01:48:50.221Z,94.49
2023-12-30T01:51:24.790Z,94.98
2023-12-30T01:53:56.525Z,94.70
2023-12-30T01:56:24.073Z,95.00
2023-12-30T01:58:51.276Z,95.13
2023-12-30T02:01:27.825Z,94.72
2023-12-30T02:03:54.978Z,94.87
2023-12-30T02:06:27.785Z,94.28
2023-12-30T02:08:59.762Z,94.60
2023-12-30T02:11:26.513Z,94.75
2023-12-30T02:13:53.945Z,93.86
2023-12-30T02:16:20.490Z,93.55
2023-12-30T02:18:55.659Z,93.83
2023-12-30T02:21:27.372Z,93.98
2023-12-30T02:23:56.910Z,94.10
2023-12-30T02:26:48.979Z,93.96
2023-12-30T02:29:15.600Z,93.91
2023-12-30T02:31:48.568Z,93.16
2023-12-30T02:34:19.541Z,93.81
2023-12-30T02:36:47.012Z,93.77
2023-12-30T02:39:14.418Z,93.87
2023-12-30T02:41:40.983Z,93.54
2023-12-30T02:44:07.922Z,93.45
2023-12-30T02:46:35.017Z,93.54
2023-12-30T02:49:04.446Z,93.70
2023-12-30T02:51:31.388Z,93.73
2023-12-30T02:53:58.020Z,93.70
2023-12-30T02:56:36.056Z,93.71
2023-12-30T02:59:03.174Z,93.97
2023-12-30T03:01:33.180Z,93.84
2023-12-30T03:04:01.748Z,94.11
2023-12-30T03:06:28.687Z,94.64
2023-12-30T03:08:55.420Z,94.10
2023-12-30T03:11:22.568Z,94.15
2023-12-30T03:13:49.199Z,94.30
2023-12-30T03:16:16.049Z,94.12
2023-12-30T03:18:44.020Z,94.38
2023-12-30T03:21:12.231Z,94.33
2023-12-30T03:23:39.052Z,94.07
2023-12-30T03:26:11.670Z,94.10
2023-12-30T03:28:38.486Z,94.39
2023-12-30T03:33:47.194Z,94.32
2023-12-30T03:36:23.444Z,94.48
2023-12-30T03:38:51.059Z,94.46
2023-12-30T03:41:18.397Z,94.26
2023-12-30T03:43:48.794Z,94.67
2023-12-30T03:46:18.002Z,94.77
2023-12-30T03:48:44.555Z,94.50
2023-12-30T03:51:11.375Z,95.07
2023-12-30T03:53:37.919Z,94.93
2023-12-30T03:56:04.830Z,94.96
2023-12-30T03:58:31.519Z,95.34
2023-12-30T04:01:07.379Z,94.83
2023-12-30T04:03:34.585Z,95.09
2023-12-30T04:06:01.433Z,94.95
2023-12-30T04:08:28.072Z,94.69
2023-12-30T04:10:54.618Z,95.08
2023-12-30T04:13:21.205Z,95.29
2023-12-30T04:15:47.725Z,95.45
2023-12-30T04:18:14.242Z,95.29
2023-12-30T04:20:40.744Z,95.49
2023-12-30T04:23:07.378Z,95.41
2023-12-30T04:25:34.558Z,95.38
2023-12-30T04:28:01.138Z,95.45
2023-12-30T04:30:27.662Z,95.48
2023-12-30T04:32:54.627Z,95.71
2023-12-30T04:35:21.294Z,95.44
2023-12-30T04:37:47.813Z,95.77
2023-12-30T04:40:14.538Z,96.19
2023-12-30T04:42:41.417Z,96.17
2023-12-30T04:45:27.375Z,95.87
2023-12-30T04:50:40.852Z,96.14
2023-12-30T04:53:07.498Z,96.33
2023-12-30T04:55:34.149Z,96.34
2023-12-30T04:58:01.954Z,96.43
2023-12-30T05:00:28.732Z,96.27
2023-12-30T05:03:02.045Z,96.59
2023-12-30T05:05:37.381Z,96.49
2023-12-30T05:08:06.869Z,96.79
2023-12-30T05:10:34.393Z,96.77
2023-12-30T05:13:10.202Z,96.73
2023-12-30T05:15:45.909Z,96.77
2023-12-30T05:18:12.977Z,96.95
2023-12-30T05:20:51.931Z,96.77
2023-12-30T05:23:18.414Z,96.68
2023-12-30T05:25:45.126Z,96.66
2023-12-30T05:28:11.898Z,96.60
2023-12-30T05:30:38.878Z,97.36
2023-12-30T05:35:46.315Z,97.17
2023-12-30T05:38:13.834Z,97.13
2023-12-30T05:40:43.648Z,96.87
2023-12-30T05:43:13.574Z,96.94
2023-12-30T05:45:46.592Z,97.14
2023-12-30T05:48:16.206Z,97.21
2023-12-30T05:50:42.782Z,96.98
2023-12-30T05:53:12.328Z,96.93
2023-12-30T05:55:42.064Z,97.56
2023-12-30T05:58:08.929Z,97.53
2023-12-30T06:00:38.428Z,97.60
2023-12-30T06:03:14.107Z,97.35
2023-12-30T06:05:43.856Z,97.37
2023-12-30T06:08:18.601Z,97.37
2023-12-30T06:10:50.603Z,97.23
2023-12-30T06:13:23.445Z,96.84
2023-12-30T06:15:58.535Z,97.24
2023-12-30T06:18:32.245Z,97.64
2023-12-30T06:21:03.170Z,97.76
2023-12-30T06:23:30.055Z,97.63
2023-12-30T06:25:56.794Z,97.69
2023-12-30T06:28:25.662Z,97.62
2023-12-30T06:30:52.478Z,97.46
2023-12-30T06:33:31.255Z,97.75
2023-12-30T06:35:58.231Z,97.84
2023-12-30T06:38:24.719Z,98.05
2023-12-30T06:40:51.431Z,98.19
2023-12-30T06:43:18.144Z,97.84
2023-12-30T06:45:44.888Z,97.71
2023-12-30T06:48:11.581Z,97.74
2023-12-30T06:50:41.141Z,97.62
2023-12-30T06:53:07.791Z,97.77
2023-12-30T06:55:38.942Z,97.90
2023-12-30T06:58:11.900Z,97.94
2023-12-30T07:00:38.710Z,98.45
2023-12-30T07:03:12.372Z,98.23
2023-12-30T07:05:39.119Z,97.98
2023-12-30T07:08:06.157Z,97.56
2023-12-30T07:10:32.849Z,97.38
2023-12-30T07:13:10.118Z,97.72
2023-12-30T07:15:39.322Z,97.68
2023-12-30T07:18:06.211Z,97.94
2023-12-30T07:20:33.881Z,98.04
2023-12-30T07:23:03.706Z,97.85
2023-12-30T07:25:30.674Z,98.22
2023-12-30T07:27:57.199Z,97.95
2023-12-30T07:30:33.219Z,98.38
2023-12-30T07:33:00.507Z,98.32
2023-12-30T07:35:28.491Z,98.49
2023-12-30T07:37:54.992Z,98.33
2023-12-30T07:40:22.184Z,98.34
2023-12-30T07:42:48.959Z,98.64
2023-12-30T07:45:18.656Z,98.46
2023-12-30T07:47:48.522Z,98.81
2023-12-30T07:50:15.337Z,98.53
2023-12-30T07:52:42.111Z,98.46
2023-12-30T07:55:09.400Z,98.51
2023-12-30T07:57:48.001Z,98.80
2023-12-30T08:00:14.960Z,98.51
2023-12-30T08:02:42.281Z,98.84
2023-12-30T08:05:15.162Z,98.84
2023-12-30T08:07:44.935Z,99.08
2023-12-30T08:10:17.749Z,98.74
2023-12-30T08:12:46.748Z,98.97
2023-12-30T08:15:13.847Z,98.89
2023-12-30T08:17:41.151Z,98.72
2023-12-30T08:20:16.985Z,99.10
2023-12-30T08:22:46.532Z,98.41
2023-12-30T08:25:14.383Z,98.85
2023-12-30T08:27:41.025Z,98.91
2023-12-30T08:30:08.141Z,98.88
2023-12-30T08:32:34.869Z,98.66
2023-12-30T08:35:04.411Z,98.81
2023-12-30T08:37:31.337Z,98.74
2023-12-30T08:40:07.511Z,98.73
2023-12-30T08:42:42.567Z,98.98
2023-12-30T08:45:19.893Z,99.22
2023-12-30T08:47:49.838Z,99.28
2023-12-30T08:50:16.507Z,99.46
2023-12-30T08:52:43.124Z,99.46
2023-12-30T08:55:12.724Z,99.53
2023-12-30T08:57:39.519Z,99.56
2023-12-30T09:00:10.096Z,99.75
2023-12-30T09:02:37.271Z,99.47
2023-12-30T09:05:05.028Z,99.65
2023-12-30T09:07:44.363Z,99.77
2023-12-30T09:10:13.789Z,99.67
2023-12-30T09:12:40.293Z,99.79
2023-12-30T09:15:07.000Z,99.77
2023-12-30T09:17:33.683Z,99.48
2023-12-30T09:20:00.402Z,99.63
2023-12-30T09:22:26.997Z,99.36
2023-12-30T09:24:53.617Z,99.79
2023-12-30T09:27:20.163Z,99.86
2023-12-30T09:29:46.825Z,99.57
2023-12-30T09:32:13.401Z,99.44
2023-12-30T09:34:44.106Z,99.41
2023-12-30T09:37:12.164Z,99.18
2023-12-30T09:39:38.663Z,99.42
2023-12-30T09:42:05.711Z,99.66
2023-12-30T09:44:33.324Z,99.56
2023-12-30T09:47:01.039Z,99.47
2023-12-30T09:49:31.784Z,99.19
2023-12-30T09:52:01.449Z,99.01
2023-12-30T09:54:38.661Z,99.31
2023-12-30T09:57:28.140Z,99.34
2023-12-30T09:59:56.438Z,99.65
2023-12-30T10:02:23.108Z,99.38
2023-12-30T10:04:51.030Z,99.08
2023-12-30T10:07:17.974Z,98.96
2023-12-30T10:09:46.547Z,99.60
2023-12-30T10:12:13.843Z,99.33
2023-12-30T10:14:40.343Z,99.36
2023-12-30T10:17:07.056Z,99.22
2023-12-30T10:19:33.668Z,98.96
2023-12-30T10:22:00.501Z,99.05
2023-12-30T10:24:31.571Z,98.81
2023-12-30T10:27:04.399Z,99.22
2023-12-30T10:29:39.818Z,98.98
2023-12-30T10:32:13.374Z,98.91
2023-12-30T10:34:41.977Z,98.91
2023-12-30T10:37:09.807Z,99.30
2023-12-30T10:39:40.045Z,99.11
2023-12-30T10:42:07.708Z,98.72
2023-12-30T10:44:34.392Z,98.56
2023-12-30T10:47:07.973Z,98.93
2023-12-30T10:49:34.725Z,98.88
2023-12-30T10:52:12.758Z,98.98
2023-12-30T10:54:42.754Z,98.68
2023-12-30T10:57:21.609Z,98.67
2023-12-30T10:59:51.314Z,98.60
2023-12-30T11:02:18.799Z,98.80
2023-12-30T11:04:46.814Z,98.55
2023-12-30T11:07:16.369Z,98.91
2023-12-30T11:09:46.224Z,98.74
2023-12-30T11:12:12.773Z,98.94
2023-12-30T11:14:39.336Z,98.89
2023-12-30T11:17:08.914Z,98.78
2023-12-30T11:19:37.293Z,98.82
2023-12-30T11:22:11.785Z,98.78
2023-12-30T11:24:39.970Z,99.05
2023-12-30T11:27:06.868Z,98.75
2023-12-30T11:29:35.524Z,98.73
2023-12-30T11:32:02.132Z,98.83
2023-12-30T11:34:33.539Z,98.54
2023-12-30T11:37:00.533Z,98.65
2023-12-30T11:39:32.360Z,98.99
2023-12-30T11:42:00.214Z,98.88
2023-12-30T11:44:29.643Z,98.66
2023-12-30T11:46:57.745Z,99.28
2023-12-30T11:49:30.530Z,98.99
2023-12-30T11:52:09.056Z,99.17
2023-12-30T11:54:39.069Z,99.00
2023-12-30T11:57:08.610Z,99.23
2023-12-30T11:59:35.315Z,99.30
2023-12-30T12:02:15.736Z,99.49
2023-12-30T12:04:43.506Z,99.80
2023-12-30T12:07:12.077Z,99.33
2023-12-30T12:09:41.490Z,99.02
2023-12-30T12:12:08.661Z,99.44
2023-12-30T12:14:35.527Z,99.15
2023-12-30T12:17:08.338Z,99.39
2023-12-30T12:19:37.941Z,99.94
2023-12-30T12:22:07.627Z,99.42
2023-12-30T12:25:02.899Z,99.15
2023-12-30T12:27:34.874Z,99.63
2023-12-30T12:30:02.297Z,99.47
2023-12-30T12:32:31.091Z,99.84
2023-12-30T12:35:13.103Z,99.65
2023-12-30T12:37:39.862Z,100.00
2023-12-30T12:40:12.099Z,99.81
2023-12-30T12:42:38.923Z,100.00
2023-12-30T12:45:06.067Z,100.00
2023-12-30T12:47:32.844Z,99.75
2023-12-30T12:49:59.820Z,100.00
2023-12-30T12:52:26.661Z,100.00
2023-12-30T12:54:53.333Z,100.00
2023-12-30T12:57:22.082Z,100.00
2023-12-30T12:59:54.382Z,100.00
2023-12-30T13:02:24.890Z,100.00
2023-12-30T13:04:55.433Z,99.86
2023-12-30T13:07:35.977Z,100.00
2023-12-30T13:10:36.944Z,100.00
2023-12-30T13:13:18.500Z,100.00
2023-12-30T13:18:27.786Z,99.54
2023-12-30T13:21:01.606Z,99.63
2023-12-30T13:23:28.548Z,99.64
2023-12-30T13:25:55.320Z,99.94
2023-12-30T13:28:21.994Z,100.00
2023-12-30T13:30:48.674Z,99.68
2023-12-30T13:33:18.216Z,99.50
2023-12-30T13:35:44.963Z,99.23
2023-12-30T13:38:14.169Z,99.17
2023-12-30T13:40:54.486Z,98.99
2023-12-30T13:43:33.393Z,98.96
2023-12-30T13:46:24.801Z,98.35
2023-12-30T13:49:10.063Z,98.05
2023-12-30T13:51:38.186Z,97.77
2023-12-30T13:54:05.124Z,97.78
2023-12-30T13:56:37.161Z,97.43
2023-12-30T13:59:09.522Z,96.65
2023-12-30T14:01:39.879Z,96.84
2023-12-30T14:04:08.607Z,96.72
2023-12-30T14:06:39.324Z,96.21
2023-12-30T14:09:32.666Z,96.29
2023-12-30T14:12:07.714Z,95.98
2023-12-30T14:14:54.279Z,96.17
2023-12-30T14:17:27.270Z,95.39
2023-12-30T14:19:53.994Z,96.04
2023-12-30T14:22:33.693Z,95.75
2023-12-30T14:25:01.574Z,96.26
2023-12-30T14:27:28.324Z,96.65
2023-12-30T14:30:06.328Z,96.83
2023-12-30T14:32:33.507Z,95.90
2023-12-30T14:35:10.629Z,95.67
2023-12-30T14:37:40.410Z,96.09
2023-12-30T14:40:08.150Z,96.45
2023-12-30T14:42:36.054Z,96.32
2023-12-30T14:45:04.453Z,96.36
2023-12-30T14:47:31.922Z,96.46
2023-12-30T14:49:58.444Z,96.19
2023-12-30T14:52:24.969Z,96.06
2023-12-30T14:54:54.467Z,96.06
2023-12-30T14:57:29.078Z,96.14
2023-12-30T14:59:55.574Z,96.22
2023-12-30T15:02:22.053Z,96.31
2023-12-30T15:04:48.565Z,96.36
2023-12-30T15:07:15.420Z,95.76
2023-12-30T15:09:42.122Z,96.29
2023-12-30T15:12:09.477Z,95.96
2023-12-30T15:14:36.198Z,96.50
2023-12-30T15:17:03.143Z,96.44
2023-12-30T15:19:29.661Z,96.09
2023-12-30T15:21:56.085Z,95.98
2023-12-30T15:24:24.314Z,96.02
2023-12-30T15:26:50.749Z,96.34
2023-12-30T15:29:17.371Z,96.67
2023-12-30T15:31:45.333Z,96.30
2023-12-30T15:34:13.055Z,96.29
2023-12-30T15:36:39.625Z,96.26
2023-12-30T15:39:06.284Z,96.42
2023-12-30T15:41:32.857Z,96.42
2023-12-30T15:44:00.561Z,96.57
2023-12-30T15:46:27.156Z,96.64
2023-12-30T15:48:53.694Z,96.69
2023-12-30T15:51:20.264Z,96.83
2023-12-30T15:53:47.792Z,96.51
2023-12-30T15:56:14.227Z,96.85
2023-12-30T15:58:40.656Z,96.77
2023-12-30T16:01:07.298Z,96.08
2023-12-30T16:03:33.905Z,96.38
2023-12-30T16:06:00.443Z,95.89
2023-12-30T16:08:26.963Z,96.21
2023-12-30T16:10:53.367Z,96.24
2023-12-30T16:13:20.021Z,95.80
2023-12-30T16:15:50.891Z,96.08
2023-12-30T16:18:17.797Z,95.84
2023-12-30T16:20:44.416Z,96.32
2023-12-30T16:23:14.330Z,95.73
2023-12-30T16:25:50.447Z,95.77
2023-12-30T16:28:23.038Z,96.10
2023-12-30T16:30:50.042Z,95.63
2023-12-30T16:33:17.408Z,95.13
2023-12-30T16:35:44.183Z,95.65
2023-12-30T16:38:10.716Z,95.46
2023-12-30T16:40:37.277Z,95.44
2023-12-30T16:43:04.324Z,95.61
2023-12-30T16:45:31.189Z,95.43
2023-12-30T16:48:01.069Z,95.23
2023-12-30T16:50:37.005Z,95.29
2023-12-30T16:53:04.124Z,95.51
2023-12-30T16:55:30.998Z,95.30
2023-12-30T16:58:15.497Z,95.20
2023-12-30T17:00:42.186Z,95.14
2023-12-30T17:03:09.088Z,95.41
2023-12-30T17:05:35.845Z,94.85
2023-12-30T17:08:09.085Z,94.99
2023-12-30T17:10:35.808Z,95.30
2023-12-30T17:13:12.173Z,95.09
2023-12-30T17:15:40.173Z,94.55
2023-12-30T17:18:12.903Z,94.92
2023-12-30T17:20:41.020Z,94.66
2023-12-30T17:23:08.626Z,94.57
2023-12-30T17:25:35.508Z,94.32
2023-12-30T17:28:09.802Z,94.77
2023-12-30T17:30:36.691Z,94.54
2023-12-30T17:33:11.574Z,94.01
2023-12-30T17:35:38.637Z,94.25
2023-12-30T17:38:05.821Z,94.45
2023-12-30T17:40:32.399Z,94.03
2023-12-30T17:43:17.501Z,94.14
2023-12-30T17:45:44.218Z,94.55
2023-12-30T17:48:11.822Z,94.10
2023-12-30T17:50:38.842Z,93.78
2023-12-30T17:53:06.056Z,94.13
2023-12-30T17:55:33.476Z,94.16
2023-12-30T17:58:00.128Z,94.21
2023-12-30T18:00:26.785Z,94.25
2023-12-30T18:03:00.760Z,94.03
2023-12-30T18:05:27.557Z,93.68
2023-12-30T18:07:54.294Z,93.83
2023-12-30T18:10:21.552Z,94.00
2023-12-30T18:12:48.279Z,93.76
2023-12-30T18:15:15.873Z,93.88
2023-12-30T18:17:44.987Z,94.15
2023-12-30T18:20:13.282Z,94.25
2023-12-30T18:22:43.349Z,93.96
2023-12-30T18:25:10.509Z,93.99
2023-12-30T18:27:37.373Z,93.69
2023-12-30T18:30:04.295Z,93.79
2023-12-30T18:32:36.112Z,93.96
2023-12-30T18:35:04.350Z,94.07
2023-12-30T18:37:37.473Z,94.17
2023-12-30T18:40:07.812Z,93.98
2023-12-30T18:42:34.504Z,94.04
2023-12-30T18:45:01.156Z,93.95
2023-12-30T18:47:27.847Z,94.52
2023-12-30T18:49:54.427Z,94.62
2023-12-30T18:55:05.450Z,94.24
2023-12-30T18:57:37.882Z,94.61
2023-12-30T19:03:22.480Z,94.54
2023-12-30T19:05:49.934Z,94.47
2023-12-30T19:08:16.886Z,94.82
2023-12-30T19:10:43.536Z,94.54
2023-12-30T19:13:10.378Z,94.72
2023-12-30T19:15:37.483Z,94.52
2023-12-30T19:18:25.824Z,95.05
2023-12-30T19:20:54.862Z,94.63
2023-12-30T19:23:31.893Z,94.52
2023-12-30T19:25:58.533Z,94.94
2023-12-30T19:28:25.290Z,94.57
2023-12-30T19:30:53.792Z,94.53
2023-12-30T19:33:26.998Z,94.97
2023-12-30T19:36:01.352Z,95.15
2023-12-30T19:38:28.328Z,94.86
2023-12-30T19:40:56.101Z,95.55
2023-12-30T19:43:23.470Z,95.23
2023-12-30T19:45:50.264Z,95.36
2023-12-30T19:48:18.057Z,95.38
2023-12-30T19:50:47.357Z,95.51
2023-12-30T19:53:27.475Z,95.33
2023-12-30T19:55:54.054Z,95.57
2023-12-30T19:58:20.690Z,96.04
2023-12-30T20:00:47.552Z,95.79
2023-12-30T20:05:58.197Z,95.62
2023-12-30T20:08:24.894Z,95.57
2023-12-30T20:10:51.568Z,95.82
2023-12-30T20:13:18.200Z,96.08
2023-12-30T20:15:47.727Z,95.76
2023-12-30T20:18:45.642Z,96.16
2023-12-30T20:21:13.202Z,96.05
2023-12-30T20:24:10.011Z,96.44
2023-12-30T20:27:30.316Z,96.14
2023-12-30T20:29:56.920Z,96.46
2023-12-30T20:32:23.601Z,96.89
2023-12-30T20:34:51.273Z,96.35
2023-12-30T20:37:20.551Z,96.45
2023-12-30T20:39:47.285Z,96.64
2023-12-30T20:42:14.400Z,97.13
2023-12-30T20:44:40.993Z,96.70
2023-12-30T20:47:09.696Z,96.87
2023-12-30T20:49:38.219Z,97.17
2023-12-30T20:52:05.465Z,97.34
2023-12-30T20:54:33.480Z,97.75
2023-12-30T20:56:59.904Z,97.47
2023-12-30T20:59:27.063Z,97.66
2023-12-30T21:01:53.664Z,97.63
2023-12-30T21:04:20.671Z,98.03
2023-12-30T21:06:47.128Z,97.57
2023-12-30T21:09:15.455Z,97.25
2023-12-30T21:11:42.871Z,98.00
2023-12-30T21:14:12.184Z,97.67
2023-12-30T21:16:38.785Z,97.71
2023-12-30T21:19:05.387Z,97.77
2023-12-30T21:21:34.641Z,97.97
2023-12-30T21:24:04.289Z,97.92
2023-12-30T21:26:32.968Z,98.19
2023-12-30T21:28:59.563Z,98.14
2023-12-30T21:31:33.184Z,98.30
2023-12-30T21:33:59.654Z,97.96
2023-12-30T21:36:28.702Z,98.23
2023-12-30T21:38:55.543Z,98.62
2023-12-30T21:41:25.998Z,98.27
2023-12-30T21:43:53.024Z,98.45
2023-12-30T21:46:24.875Z,98.88
2023-12-30T21:48:53.090Z,98.78
2023-12-30T21:51:32.234Z,98.64
2023-12-30T21:53:59.180Z,98.63
2023-12-30T21:56:26.170Z,99.04
2023-12-30T21:58:52.675Z,98.97
2023-12-30T22:01:19.313Z,98.62
2023-12-30T22:03:45.807Z,98.78
2023-12-30T22:06:13.412Z,98.74
2023-12-30T22:08:40.996Z,99.04
2023-12-30T22:11:07.501Z,99.05
2023-12-30T22:13:36.953Z,98.93
2023-12-30T22:16:07.027Z,99.62
2023-12-30T22:18:45.129Z,99.76
2023-12-30T22:21:11.699Z,99.89
2023-12-30T22:23:38.409Z,99.56
2023-12-30T22:26:12.189Z,99.93
2023-12-30T22:28:38.689Z,99.87
2023-12-30T22:31:11.389Z,100.00
2023-12-30T22:33:38.073Z,100.00
2023-12-30T22:36:05.111Z,99.93
2023-12-30T22:38:31.982Z,99.99
2023-12-30T22:40:58.588Z,99.90
2023-12-30T22:43:25.390Z,100.00
2023-12-30T22:45:52.127Z,100.00
2023-12-30T22:48:20.980Z,100.00
2023-12-30T22:50:47.526Z,99.81
2023-12-30T22:53:14.038Z,100.00
2023-12-30T22:55:40.642Z,100.00
2023-12-30T22:58:07.176Z,100.00
2023-12-30T23:00:35.072Z,100.00
2023-12-30T23:03:02.601Z,100.00
2023-12-30T23:05:37.822Z,100.00
2023-12-30T23:08:16.544Z,100.00
2023-12-30T23:10:43.114Z,100.00
2023-12-30T23:13:20.015Z,100.00
2023-12-30T23:15:47.510Z,100.00
2023-12-30T23:18:14.282Z,100.00
2023-12-30T23:20:40.930Z,100.00
2023-12-30T23:23:07.501Z,100.00
2023-12-30T23:25:33.995Z,100.00
2023-12-30T23:28:00.787Z,100.00
2023-12-30T23:30:30.545Z,100.00
2023-12-30T23:32:57.183Z,100.00
2023-12-30T23:35:23.826Z,100.00
2023-12-30T23:37:50.362Z,100.00
2023-12-30T23:40:17.133Z,100.00
2023-12-30T23:42:43.674Z,100.00
2023-12-30T23:45:10.749Z,100.00
2023-12-30T23:50:18.720Z,100.00
2023-12-30T23:52:48.962Z,100.00
2023-12-30T23:55:15.635Z,100.00
2023-12-30T23:57:42.287Z,100.00
